Time;durP1;ratioP1;P1;durP2;ratioP2;P2;SDS_P1;SDS_P2;PMS_P1;PMS_P2;Temp;Humidity;BMP_temperature;BMP_pressure;BME280_temperature;BME280_humidity;BME280_pressure;Samples;Min_cycle;Max_cycle;Signal;HPM_P1;HPM_P2
2023/08/01 00:01:29;;;;;;;13.27;12.47;;;19.50;99.90;;;;;;5039750;28;20481;-48
2023/08/01 00:03:55;;;;;;;13.23;12.23;;;19.30;1.00;;;;;;5040267;28;20435;-49
2023/08/01 00:06:22;;;;;;;13.13;12.43;;;19.30;1.00;;;;;;5040599;28;20420;-48
2023/08/01 00:08:48;;;;;;;12.90;12.10;;;19.30;1.00;;;;;;5038380;28;20213;-52
2023/08/01 00:11:14;;;;;;;12.80;12.10;;;19.30;1.00;;;;;;5036299;28;20436;-52
2023/08/01 00:13:40;;;;;;;12.67;11.90;;;19.30;99.90;;;;;;5040011;28;20440;-49
2023/08/01 00:16:06;;;;;;;12.77;11.87;;;19.30;62.70;;;;;;5040346;28;20921;-53
2023/08/01 00:18:32;;;;;;;12.40;11.67;;;19.30;99.90;;;;;;5040741;28;20884;-49
2023/08/01 00:20:58;;;;;;;12.60;11.90;;;19.30;99.90;;;;;;5020928;28;20436;-47
2023/08/01 00:23:24;;;;;;;12.37;11.67;;;19.30;1.00;;;;;;5039712;28;20240;-51
2023/08/01 00:25:51;;;;;;;12.70;12.00;;;19.20;99.90;;;;;;5039663;28;20471;-50
2023/08/01 00:28:21;;;;;;;13.17;12.37;;;19.20;99.90;;;;;;5039920;28;20411;-45
2023/08/01 00:30:47;;;;;;;13.37;12.37;;;19.20;99.90;;;;;;5039842;28;21099;-50
2023/08/01 00:33:14;;;;;;;12.53;11.73;;;19.20;1.00;;;;;;5039417;28;20439;-51
2023/08/01 00:35:41;;;;;;;12.87;12.17;;;19.20;99.90;;;;;;5039652;28;20209;-49
2023/08/01 00:38:07;;;;;;;13.33;12.37;;;19.20;1.00;;;;;;5039400;28;20436;-49
2023/08/01 00:40:34;;;;;;;12.90;12.10;;;19.20;1.00;;;;;;5037608;28;20522;-51
2023/08/01 00:43:00;;;;;;;13.30;12.43;;;19.20;62.90;;;;;;5020183;28;20205;-53
2023/08/01 00:45:30;;;;;;;13.10;12.40;;;19.20;1.00;;;;;;5037293;28;20901;-51
2023/08/01 00:47:56;;;;;;;12.90;12.20;;;19.20;1.00;;;;;;5039152;28;21270;-52
2023/08/01 00:50:23;;;;;;;13.10;12.30;;;19.20;99.90;;;;;;5039450;28;20902;-51
2023/08/01 00:52:51;;;;;;;12.87;11.97;;;19.20;1.00;;;;;;5017610;28;20541;-51
2023/08/01 00:55:18;;;;;;;12.40;11.70;;;19.20;1.00;;;;;;5038656;28;20581;-51
2023/08/01 00:57:43;;;;;;;13.00;12.20;;;19.20;99.90;;;;;;5037343;28;20436;-50
2023/08/01 01:00:10;;;;;;;12.97;11.90;;;19.30;1.00;;;;;;5038884;28;20467;-49
2023/08/01 01:02:37;;;;;;;12.50;11.80;;;19.30;1.00;;;;;;5038279;28;20244;-50
2023/08/01 01:05:03;;;;;;;12.77;11.97;;;19.30;1.00;;;;;;5035916;28;20468;-44
2023/08/01 01:07:30;;;;;;;12.20;11.30;;;19.30;1.00;;;;;;5036767;28;20466;-46
2023/08/01 01:09:56;;;;;;;12.50;11.80;;;19.30;1.00;;;;;;5038896;28;20443;-51
2023/08/01 01:12:21;;;;;;;12.70;12.00;;;19.30;99.90;;;;;;5003897;28;20490;-51
2023/08/01 01:14:47;;;;;;;12.90;12.10;;;19.30;1.00;;;;;;5039384;28;20255;-48
2023/08/01 01:17:14;;;;;;;12.87;12.17;;;19.30;99.90;;;;;;5038416;28;20194;-52
2023/08/01 01:19:39;;;;;;;13.47;12.50;;;19.30;99.90;;;;;;5037795;28;20284;-45
2023/08/01 01:22:10;;;;;;;12.83;12.10;;;19.40;99.90;;;;;;5038739;28;20427;-51
2023/08/01 01:24:37;;;;;;;13.33;12.33;;;19.30;99.90;;;;;;5038204;28;20232;-50
2023/08/01 01:27:07;;;;;;;13.13;12.33;;;19.30;99.90;;;;;;5038809;28;20946;-51
2023/08/01 01:29:33;;;;;;;12.60;11.90;;;19.40;99.90;;;;;;5036781;28;20458;-41
2023/08/01 01:32:00;;;;;;;12.80;12.10;;;19.40;99.90;;;;;;5038900;28;20439;-41
2023/08/01 01:34:28;;;;;;;12.97;12.17;;;19.40;99.90;;;;;;5038323;28;20458;-43
2023/08/01 01:36:54;;;;;;;12.57;11.87;;;19.40;99.90;;;;;;5038302;28;20447;-40
2023/08/01 01:39:20;;;;;;;13.27;12.47;;;19.40;99.90;;;;;;5038332;28;20598;-41
2023/08/01 01:41:46;;;;;;;12.70;12.03;;;19.40;99.90;;;;;;5041356;28;20813;-42
2023/08/01 01:44:11;;;;;;;12.57;11.97;;;19.50;99.90;;;;;;5042324;28;20487;-43
2023/08/01 01:46:37;;;;;;;12.80;12.00;;;19.70;99.90;;;;;;5042257;28;20235;-44
2023/08/01 01:49:03;;;;;;;12.70;12.00;;;19.70;99.90;;;;;;5023793;28;20452;-43
2023/08/01 01:51:29;;;;;;;12.60;11.90;;;19.80;99.90;;;;;;5039400;28;20593;-44
2023/08/01 01:53:55;;;;;;;12.20;11.50;;;19.90;99.90;;;;;;5040668;28;20190;-40
2023/08/01 01:56:20;;;;;;;12.27;11.57;;;19.90;99.90;;;;;;5042571;28;20493;-42
2023/08/01 01:58:46;;;;;;;11.80;11.10;;;20.00;99.90;;;;;;5042600;28;20241;-44
2023/08/01 02:01:12;;;;;;;12.30;11.60;;;20.10;99.90;;;;;;5040770;28;20182;-40
2023/08/01 02:03:37;;;;;;;12.40;11.70;;;20.10;99.90;;;;;;5021263;28;20193;-40
2023/08/01 02:06:03;;;;;;;12.60;11.90;;;20.00;99.90;;;;;;5042242;28;20206;-40
2023/08/01 02:08:30;;;;;;;11.83;11.23;;;20.00;99.90;;;;;;5040955;28;20316;-44
2023/08/01 02:10:57;;;;;;;12.47;11.70;;;20.00;99.90;;;;;;5041807;28;20565;-40
2023/08/01 02:13:24;;;;;;;12.33;11.63;;;19.90;99.90;;;;;;5040037;28;20444;-42
2023/08/01 02:15:49;;;;;;;13.63;12.83;;;19.70;99.90;;;;;;5041199;28;20443;-41
2023/08/01 02:18:15;;;;;;;14.20;13.40;;;19.50;99.90;;;;;;5041253;28;21300;-40
2023/08/01 02:20:41;;;;;;;14.13;13.33;;;19.20;99.90;;;;;;5042543;28;20455;-39
2023/08/01 02:23:07;;;;;;;13.90;13.13;;;18.90;99.90;;;;;;5042455;28;20178;-41
2023/08/01 02:25:32;;;;;;;14.63;13.70;;;18.70;1.00;;;;;;5041388;28;20665;-41
2023/08/01 02:27:58;;;;;;;14.73;13.93;;;18.50;1.00;;;;;;5042487;28;20272;-44
2023/08/01 02:30:24;;;;;;;14.90;14.10;;;18.40;99.90;;;;;;5042247;28;20664;-42
2023/08/01 02:32:49;;;;;;;14.67;13.87;;;18.20;99.90;;;;;;5042382;28;20193;-42
2023/08/01 02:35:15;;;;;;;15.60;14.70;;;18.10;1.00;;;;;;5041967;28;20194;-45
2023/08/01 02:37:40;;;;;;;15.70;14.70;;;18.00;1.00;;;;;;5041311;28;20220;-49
2023/08/01 02:40:09;;;;;;;15.97;15.00;;;18.00;1.00;;;;;;5042012;28;20213;-50
2023/08/01 02:42:34;;;;;;;15.90;14.90;;;17.90;1.00;;;;;;5042029;28;20418;-48
2023/08/01 02:45:00;;;;;;;15.80;14.90;;;17.80;1.00;;;;;;5042574;28;20465;-47
2023/08/01 02:47:25;;;;;;;15.83;14.93;;;17.70;1.00;;;;;;5042151;28;20189;-48
2023/08/01 02:49:51;;;;;;;16.23;15.30;;;17.70;1.00;;;;;;5038023;28;20639;-48
2023/08/01 02:52:16;;;;;;;16.10;15.10;;;17.70;1.00;;;;;;5035434;28;20190;-53
2023/08/01 02:54:42;;;;;;;15.93;14.93;;;17.60;1.00;;;;;;5039776;28;20626;-49
2023/08/01 02:57:08;;;;;;;15.70;14.70;;;17.60;22.70;;;;;;5042045;28;20197;-51
2023/08/01 02:59:33;;;;;;;15.50;14.60;;;17.60;53.70;;;;;;5022686;28;20232;-50
2023/08/01 03:01:59;;;;;;;14.97;14.17;;;17.60;93.70;;;;;;5038649;28;20516;-52
2023/08/01 03:04:25;;;;;;;15.67;14.77;;;17.60;99.90;;;;;;5042120;28;20189;-54
2023/08/01 03:06:50;;;;;;;15.77;14.67;;;17.60;99.90;;;;;;5041574;28;20221;-47
2023/08/01 03:09:16;;;;;;;15.67;14.77;;;17.60;99.90;;;;;;5041705;28;20268;-52
2023/08/01 03:11:41;;;;;;;15.10;14.20;;;17.50;99.90;;;;;;5039289;28;20729;-52
2023/08/01 03:14:07;;;;;;;16.10;15.10;;;17.60;99.90;;;;;;5041539;28;20676;-45
2023/08/01 03:16:33;;;;;;;15.43;14.43;;;17.50;99.90;;;;;;5041349;28;20184;-52
2023/08/01 03:19:04;;;;;;;16.10;15.00;;;17.60;99.90;;;;;;5041487;28;20201;-48
2023/08/01 03:21:33;;;;;;;15.60;14.63;;;17.50;99.90;;;;;;5041295;28;20715;-47
2023/08/01 03:23:59;;;;;;;15.00;14.00;;;17.50;99.90;;;;;;5040068;28;20463;-51
2023/08/01 03:26:25;;;;;;;15.70;14.60;;;17.50;99.90;;;;;;5040794;28;20494;-47
2023/08/01 03:28:51;;;;;;;15.97;14.97;;;17.50;99.90;;;;;;5039304;28;21231;-45
2023/08/01 03:31:16;;;;;;;14.60;13.80;;;17.50;99.90;;;;;;5041168;28;20235;-40
2023/08/01 03:33:42;;;;;;;15.50;14.50;;;17.50;99.90;;;;;;5038836;28;20204;-39
2023/08/01 03:36:08;;;;;;;15.73;14.53;;;17.50;99.90;;;;;;5039328;28;20181;-40
2023/08/01 03:38:33;;;;;;;15.50;14.60;;;17.50;99.90;;;;;;5040337;28;20265;-40
2023/08/01 03:40:59;;;;;;;15.17;14.27;;;17.50;99.90;;;;;;5040747;28;21330;-40
2023/08/01 03:43:24;;;;;;;16.40;15.20;;;17.50;99.90;;;;;;5040654;28;20621;-40
2023/08/01 03:45:51;;;;;;;16.00;15.00;;;17.40;99.90;;;;;;5041737;28;20185;-49
2023/08/01 03:48:17;;;;;;;16.90;15.80;;;17.40;99.90;;;;;;5005143;28;20341;-45
2023/08/01 03:50:42;;;;;;;16.37;15.47;;;17.40;99.90;;;;;;5040673;28;20841;-45
2023/08/01 03:53:08;;;;;;;16.40;15.30;;;17.40;99.90;;;;;;5040686;28;20200;-47
2023/08/01 03:55:33;;;;;;;17.47;16.27;;;17.40;99.90;;;;;;5039649;28;20239;-51
2023/08/01 03:57:59;;;;;;;16.90;15.80;;;17.40;99.90;;;;;;5040551;28;20637;-44
2023/08/01 04:00:24;;;;;;;16.60;15.60;;;17.40;99.90;;;;;;5039128;28;20217;-49
2023/08/01 04:02:50;;;;;;;17.93;16.73;;;17.40;99.90;;;;;;5038263;28;20212;-50
2023/08/01 04:05:16;;;;;;;18.60;17.20;;;17.50;99.90;;;;;;5040342;28;20806;-51
2023/08/01 04:07:42;;;;;;;18.70;17.43;;;17.50;99.90;;;;;;5039002;28;20464;-47
2023/08/01 04:10:08;;;;;;;17.40;16.20;;;17.50;99.90;;;;;;5040034;28;20203;-53
2023/08/01 04:12:34;;;;;;;18.80;17.57;;;17.50;99.90;;;;;;5039560;28;20193;-52
2023/08/01 04:15:00;;;;;;;19.23;17.93;;;17.50;99.90;;;;;;5039433;28;20998;-49
2023/08/01 04:17:26;;;;;;;18.40;17.13;;;17.50;99.90;;;;;;5040204;28;20420;-51
2023/08/01 04:19:52;;;;;;;18.37;17.00;;;17.60;99.90;;;;;;5036522;28;20683;-51
2023/08/01 04:22:18;;;;;;;17.60;16.47;;;17.60;99.90;;;;;;5034858;28;20428;-47
2023/08/01 04:24:44;;;;;;;17.50;16.40;;;17.60;99.90;;;;;;5035227;28;21008;-52
2023/08/01 04:27:09;;;;;;;18.47;17.27;;;17.70;99.90;;;;;;5037127;28;20190;-51
2023/08/01 04:29:35;;;;;;;18.27;17.17;;;17.70;99.90;;;;;;5040305;28;20348;-52
2023/08/01 04:32:01;;;;;;;18.63;17.43;;;17.70;99.90;;;;;;5035584;28;20362;-49
2023/08/01 04:34:26;;;;;;;17.90;16.80;;;17.80;99.90;;;;;;5033795;28;20194;-51
2023/08/01 04:36:52;;;;;;;18.47;17.27;;;17.80;99.90;;;;;;5038927;28;20190;-52
2023/08/01 04:39:17;;;;;;;18.70;17.50;;;17.90;99.90;;;;;;5015818;28;20213;-48
2023/08/01 04:41:43;;;;;;;17.73;16.60;;;17.90;99.90;;;;;;5036256;28;20190;-50
2023/08/01 04:44:09;;;;;;;19.00;17.80;;;18.00;99.90;;;;;;5039842;28;20188;-52
2023/08/01 04:46:34;;;;;;;18.13;16.93;;;18.00;99.90;;;;;;5038895;28;20265;-51
2023/08/01 04:49:00;;;;;;;18.10;16.90;;;18.00;99.90;;;;;;5039486;28;20198;-54
2023/08/01 04:51:25;;;;;;;17.73;16.43;;;18.10;99.90;;;;;;5039729;28;20193;-50
2023/08/01 04:53:51;;;;;;;18.27;17.10;;;18.10;99.90;;;;;;5009589;28;20316;-52
2023/08/01 04:56:17;;;;;;;17.27;16.20;;;18.20;99.90;;;;;;5039490;28;20729;-49
2023/08/01 04:58:43;;;;;;;18.67;17.37;;;18.30;99.90;;;;;;5039748;28;20420;-50
2023/08/01 05:01:08;;;;;;;17.60;16.50;;;18.20;99.90;;;;;;5039519;28;20177;-53
2023/08/01 05:03:34;;;;;;;18.00;16.80;;;18.30;99.90;;;;;;5039669;28;20177;-49
2023/08/01 05:05:59;;;;;;;18.90;17.60;;;18.20;99.90;;;;;;5039496;28;20182;-41
2023/08/01 05:08:25;;;;;;;18.90;17.60;;;18.20;99.90;;;;;;5039390;28;20304;-42
2023/08/01 05:10:51;;;;;;;18.53;17.23;;;18.20;99.90;;;;;;5039706;28;20178;-41
2023/08/01 05:13:16;;;;;;;19.73;18.40;;;18.20;99.90;;;;;;5039201;28;20192;-43
2023/08/01 05:15:47;;;;;;;19.77;18.47;;;18.20;99.90;;;;;;5039789;28;20186;-41
2023/08/01 05:18:16;;;;;;;19.10;17.80;;;18.30;99.90;;;;;;5039390;28;20191;-41
2023/08/01 05:20:42;;;;;;;20.10;18.60;;;18.20;99.90;;;;;;5039377;28;20521;-43
2023/08/01 05:23:08;;;;;;;20.20;18.90;;;18.30;99.90;;;;;;5037589;28;20527;-41
2023/08/01 05:25:33;;;;;;;19.80;18.40;;;18.20;99.90;;;;;;5037598;28;20226;-40
2023/08/01 05:27:59;;;;;;;21.90;20.30;;;18.20;99.90;;;;;;5039514;28;20189;-41
2023/08/01 05:30:25;;;;;;;21.97;20.37;;;18.20;99.90;;;;;;5037412;28;20273;-40
2023/08/01 05:32:51;;;;;;;20.47;18.87;;;18.20;99.90;;;;;;5037925;28;20738;-43
2023/08/01 05:35:17;;;;;;;21.53;20.00;;;18.20;99.90;;;;;;5039733;28;20442;-41
2023/08/01 05:37:42;;;;;;;21.23;19.73;;;18.20;99.90;;;;;;5038861;28;20201;-40
2023/08/01 05:40:09;;;;;;;21.10;19.70;;;18.10;99.90;;;;;;5037379;28;20874;-40
2023/08/01 05:42:34;;;;;;;22.40;20.77;;;18.10;99.90;;;;;;5039106;28;20177;-40
2023/08/01 05:45:00;;;;;;;21.10;19.60;;;18.10;99.90;;;;;;5038795;28;20439;-44
2023/08/01 05:47:25;;;;;;;19.93;18.53;;;18.10;99.90;;;;;;5038849;28;20263;-44
2023/08/01 05:49:51;;;;;;;21.33;19.73;;;18.10;99.90;;;;;;5038708;28;20182;-43
2023/08/01 05:52:17;;;;;;;20.63;19.13;;;18.10;99.90;;;;;;5038740;28;20244;-39
2023/08/01 05:54:42;;;;;;;20.17;18.77;;;18.20;99.90;;;;;;5037330;28;20190;-40
2023/08/01 05:57:08;;;;;;;19.00;17.70;;;18.20;99.90;;;;;;5038571;28;20225;-39
2023/08/01 05:59:34;;;;;;;20.17;18.57;;;18.30;99.90;;;;;;5038047;28;20213;-41
2023/08/01 06:02:00;;;;;;;19.00;17.60;;;18.30;99.90;;;;;;5039006;28;20624;-40
2023/08/01 06:04:25;;;;;;;18.40;17.10;;;18.30;99.90;;;;;;5037158;28;20452;-40
2023/08/01 06:06:51;;;;;;;19.43;18.10;;;18.30;99.90;;;;;;5037727;28;20266;-42
2023/08/01 06:09:16;;;;;;;18.30;17.10;;;18.30;99.90;;;;;;5037364;28;20315;-40
2023/08/01 06:11:42;;;;;;;17.93;16.73;;;18.40;99.90;;;;;;5036498;28;20575;-45
2023/08/01 06:14:09;;;;;;;17.27;16.17;;;18.50;99.90;;;;;;5038654;28;20781;-40
2023/08/01 06:16:35;;;;;;;17.37;16.17;;;18.60;99.90;;;;;;5038899;28;20834;-50
2023/08/01 06:19:00;;;;;;;16.97;15.87;;;18.70;99.90;;;;;;5038224;28;20564;-52
2023/08/01 06:21:26;;;;;;;16.30;15.30;;;18.70;99.90;;;;;;5037677;28;20178;-47
2023/08/01 06:23:51;;;;;;;17.80;16.70;;;18.80;99.90;;;;;;5036807;28;20233;-48
2023/08/01 06:26:17;;;;;;;16.13;15.03;;;18.80;99.90;;;;;;5037952;28;20813;-55
2023/08/01 06:28:43;;;;;;;17.40;16.20;;;18.90;99.90;;;;;;5041461;28;20190;-52
2023/08/01 06:31:08;;;;;;;16.60;15.60;;;19.00;99.90;;;;;;5041796;28;20197;-53
2023/08/01 06:33:34;;;;;;;15.97;15.07;;;19.00;99.90;;;;;;5041496;28;20273;-52
2023/08/01 06:36:00;;;;;;;16.87;15.87;;;19.00;99.90;;;;;;5020625;28;20193;-54
2023/08/01 06:38:25;;;;;;;16.20;15.10;;;19.00;99.90;;;;;;5041299;28;20182;-46
2023/08/01 06:40:51;;;;;;;16.10;15.10;;;18.90;99.90;;;;;;5023508;28;20213;-53
2023/08/01 06:43:16;;;;;;;15.93;14.77;;;18.90;99.90;;;;;;5022606;28;20648;-53
2023/08/01 06:45:42;;;;;;;14.77;13.87;;;18.90;99.90;;;;;;5041295;28;20600;-49
2023/08/01 06:48:08;;;;;;;12.10;11.50;;;18.90;99.90;;;;;;5041394;28;20193;-42
2023/08/01 06:50:34;;;;;;;15.07;14.20;;;19.00;95.10;;;;;;5041391;28;20692;-44
2023/08/01 06:53:00;;;;;;;14.60;13.90;;;19.10;93.70;;;;;;5041096;28;20447;-43
2023/08/01 06:55:26;;;;;;;13.93;13.23;;;18.90;99.90;;;;;;5041756;28;20196;-43
2023/08/01 06:57:52;;;;;;;14.23;13.57;;;18.70;99.90;;;;;;5041238;28;20926;-42
2023/08/01 07:00:18;;;;;;;13.77;13.17;;;18.70;99.90;;;;;;5041321;28;20206;-40
2023/08/01 07:02:43;;;;;;;13.70;13.10;;;18.70;99.90;;;;;;5041500;28;20181;-49
2023/08/01 07:05:09;;;;;;;13.47;12.87;;;18.70;99.90;;;;;;5040751;28;20609;-49
2023/08/01 07:07:34;;;;;;;13.90;13.20;;;18.70;99.90;;;;;;5041488;28;20264;-48
2023/08/01 07:10:00;;;;;;;14.20;13.50;;;18.70;99.90;;;;;;5041457;28;20438;-49
2023/08/01 07:12:25;;;;;;;13.63;13.03;;;18.80;99.90;;;;;;5041475;28;20674;-49
2023/08/01 07:14:51;;;;;;;14.30;13.60;;;18.80;99.90;;;;;;5040799;28;20223;-49
2023/08/01 07:17:17;;;;;;;13.67;13.07;;;18.80;98.90;;;;;;5039353;28;20194;-49
2023/08/01 07:19:43;;;;;;;13.73;13.13;;;18.80;99.90;;;;;;5040921;28;20200;-48
2023/08/01 07:22:09;;;;;;;13.57;12.90;;;18.90;99.90;;;;;;5041212;28;20321;-46
2023/08/01 07:24:34;;;;;;;13.43;12.83;;;18.90;99.90;;;;;;5041494;28;20252;-48
2023/08/01 07:27:00;;;;;;;14.20;13.50;;;19.00;93.70;;;;;;5039707;28;20440;-47
2023/08/01 07:29:25;;;;;;;13.67;13.00;;;19.00;99.90;;;;;;5040607;28;20181;-47
2023/08/01 07:31:51;;;;;;;13.50;12.87;;;19.10;99.90;;;;;;5039219;28;20391;-49
2023/08/01 07:34:17;;;;;;;13.30;12.70;;;19.20;95.90;;;;;;5037044;28;20193;-50
2023/08/01 07:36:42;;;;;;;12.57;11.97;;;19.50;55.50;;;;;;5039485;28;20193;-49
2023/08/01 07:39:08;;;;;;;13.10;12.50;;;19.60;78.70;;;;;;5038101;28;20210;-51
2023/08/01 07:41:34;;;;;;;12.70;12.10;;;19.80;17.20;;;;;;5039592;28;20272;-50
2023/08/01 07:44:02;;;;;;;12.40;11.80;;;19.90;49.10;;;;;;5039897;28;20237;-52
2023/08/01 07:46:28;;;;;;;12.80;12.20;;;20.10;42.60;;;;;;5039699;28;20953;-50
2023/08/01 07:48:54;;;;;;;12.60;11.90;;;20.20;19.10;;;;;;5040415;28;20432;-46
2023/08/01 07:51:19;;;;;;;11.40;10.90;;;20.30;1.00;;;;;;5040036;28;20520;-46
2023/08/01 07:53:45;;;;;;;11.43;10.93;;;20.30;1.00;;;;;;5040126;28;20192;-52
2023/08/01 07:56:11;;;;;;;11.20;10.70;;;20.30;1.00;;;;;;5039740;28;20881;-52
2023/08/01 07:58:36;;;;;;;12.70;12.10;;;20.40;1.00;;;;;;5040466;28;20181;-48
2023/08/01 08:01:06;;;;;;;13.03;12.33;;;20.20;1.00;;;;;;5040432;28;20217;-49
2023/08/01 08:03:31;;;;;;;12.50;11.90;;;20.10;1.00;;;;;;5039500;28;20555;-48
2023/08/01 08:05:58;;;;;;;11.80;11.30;;;19.90;6.00;;;;;;5039425;28;20458;-47
2023/08/01 08:08:24;;;;;;;11.33;10.83;;;19.90;1.00;;;;;;5039872;28;20243;-52
2023/08/01 08:10:50;;;;;;;10.73;10.33;;;20.00;8.00;;;;;;5039391;28;21017;-52
2023/08/01 08:13:16;;;;;;;11.50;10.90;;;20.10;6.20;;;;;;5039370;28;20490;-49
2023/08/01 08:15:41;;;;;;;11.13;10.63;;;20.20;1.00;;;;;;5040291;28;20193;-50
2023/08/01 08:18:07;;;;;;;11.13;10.63;;;20.30;1.00;;;;;;5040047;28;20931;-52
2023/08/01 08:20:41;;;;;;;10.53;10.13;;;20.40;1.00;;;;;;5040126;28;20206;-52
2023/08/01 08:23:07;;;;;;;11.17;10.67;;;20.50;1.00;;;;;;5038958;28;20185;-47
2023/08/01 08:25:33;;;;;;;10.87;10.37;;;20.60;1.00;;;;;;5038878;28;20512;-52
2023/08/01 08:27:59;;;;;;;11.27;10.77;;;20.70;1.00;;;;;;5038946;28;21021;-52
2023/08/01 08:30:24;;;;;;;10.43;10.03;;;20.80;1.00;;;;;;5039211;28;20906;-49
2023/08/01 08:32:50;;;;;;;9.90;9.50;;;21.00;1.00;;;;;;5039525;28;20181;-48
2023/08/01 08:35:16;;;;;;;10.40;10.00;;;21.10;1.00;;;;;;5038459;28;20664;-52
2023/08/01 08:37:41;;;;;;;10.70;10.30;;;21.20;1.00;;;;;;5038925;28;20196;-51
2023/08/01 08:40:08;;;;;;;9.53;9.13;;;21.10;1.00;;;;;;5037520;28;20205;-48
2023/08/01 08:42:37;;;;;;;10.20;9.80;;;21.00;1.00;;;;;;5017663;28;20706;-50
2023/08/01 08:45:05;;;;;;;10.43;9.93;;;21.10;1.00;;;;;;5014610;28;20475;-52
2023/08/01 08:47:40;;;;;;;10.83;10.33;;;21.10;1.00;;;;;;5014705;28;21610;-53
2023/08/01 08:50:07;;;;;;;10.80;10.30;;;21.20;1.00;;;;;;5020848;28;20445;-51
2023/08/01 08:52:33;;;;;;;9.90;9.50;;;21.20;1.00;;;;;;5026051;28;20439;-49
2023/08/01 08:55:00;;;;;;;10.70;10.20;;;21.30;1.00;;;;;;5039026;28;20432;-47
2023/08/01 08:57:27;;;;;;;10.53;10.10;;;21.40;1.00;;;;;;5037743;28;20551;-51
2023/08/01 08:59:53;;;;;;;10.47;9.97;;;21.50;1.00;;;;;;5039419;28;20510;-48
2023/08/01 09:02:18;;;;;;;10.70;10.20;;;21.40;1.00;;;;;;5038436;28;20443;-41
2023/08/01 09:04:44;;;;;;;10.83;10.33;;;21.70;1.00;;;;;;5038043;28;20776;-41
2023/08/01 09:07:14;;;;;;;10.13;9.73;;;21.80;1.00;;;;;;5039002;28;20463;-53
2023/08/01 09:09:39;;;;;;;9.73;9.30;;;21.60;1.00;;;;;;5038368;28;20811;-50
2023/08/01 09:12:07;;;;;;;10.53;10.13;;;21.50;99.90;;;;;;5038831;28;20447;-55
2023/08/01 09:14:32;;;;;;;10.20;9.80;;;21.30;1.00;;;;;;5036926;28;20277;-54
2023/08/01 09:17:07;;;;;;;11.13;10.50;;;21.40;99.90;;;;;;5038109;28;20793;-52
2023/08/01 09:19:33;;;;;;;10.67;10.17;;;21.60;1.00;;;;;;5038577;28;20213;-53
2023/08/01 09:21:59;;;;;;;11.00;10.60;;;21.50;99.90;;;;;;5020138;28;21130;-47
2023/08/01 09:24:25;;;;;;;10.80;10.40;;;21.30;1.00;;;;;;5037984;28;20490;-50
2023/08/01 09:26:50;;;;;;;10.90;10.50;;;21.30;1.00;;;;;;5037941;28;20185;-52
2023/08/01 09:29:17;;;;;;;11.17;10.67;;;20.90;1.00;;;;;;5038724;28;20193;-51
2023/08/01 09:31:43;;;;;;;10.80;10.30;;;20.60;1.00;;;;;;5037301;28;20671;-50
2023/08/01 09:34:23;;;;;;;10.77;9.87;;;20.30;1.00;;;;;;5038204;28;20505;-52
2023/08/01 09:36:50;;;;;;;11.07;10.57;;;20.10;99.90;;;;;;5038641;28;20810;-42
2023/08/01 09:39:20;;;;;;;11.50;11.00;;;19.90;99.90;;;;;;5038321;28;20472;-41
2023/08/01 09:41:57;;;;;;;10.87;10.37;;;19.80;99.90;;;;;;5038665;28;20428;-40
2023/08/01 09:44:22;;;;;;;10.57;10.07;;;19.80;99.90;;;;;;5038232;28;20549;-40
2023/08/01 09:46:59;;;;;;;10.10;9.70;;;19.90;99.90;;;;;;5038846;28;20549;-41
2023/08/01 09:49:25;;;;;;;10.90;10.50;;;20.00;1.00;;;;;;5038562;28;20197;-43
2023/08/01 09:51:51;;;;;;;10.83;10.40;;;20.20;1.00;;;;;;5038844;28;20440;-40
2023/08/01 09:54:17;;;;;;;10.53;10.13;;;20.30;1.00;;;;;;5038360;28;20521;-41
2023/08/01 09:56:49;;;;;;;10.30;9.90;;;20.40;1.00;;;;;;5038061;28;20466;-41
2023/08/01 09:59:25;;;;;;;10.47;10.07;;;20.70;99.90;;;;;;5037930;28;20472;-42
2023/08/01 10:01:53;;;;;;;10.23;9.83;;;20.80;1.00;;;;;;5039329;28;20432;-43
2023/08/01 10:04:24;;;;;;;10.80;10.10;;;21.00;99.90;;;;;;5042107;28;20440;-40
2023/08/01 10:06:55;;;;;;;10.40;10.00;;;21.10;1.00;;;;;;5042234;28;20435;-41
2023/08/01 10:09:22;;;;;;;9.57;9.07;;;21.20;1.00;;;;;;5042240;28;20444;-40
2023/08/01 10:11:49;;;;;;;10.47;10.07;;;21.30;99.90;;;;;;5042240;28;20448;-42
2023/08/01 10:14:15;;;;;;;10.60;10.10;;;21.40;99.90;;;;;;5039585;28;20440;-41
2023/08/01 10:16:44;;;;;;;9.83;9.43;;;21.40;99.90;;;;;;5042019;28;20906;-41
2023/08/01 10:19:11;;;;;;;9.60;9.20;;;21.50;99.90;;;;;;5041891;28;20467;-42
2023/08/01 10:21:38;;;;;;;10.23;9.83;;;21.40;99.90;;;;;;5040589;28;21078;-43
2023/08/01 10:24:05;;;;;;;10.00;9.60;;;21.50;99.90;;;;;;5039830;28;20755;-40
2023/08/01 10:26:31;;;;;;;10.10;9.70;;;21.50;99.90;;;;;;5041800;28;20451;-41
2023/08/01 10:28:58;;;;;;;10.27;9.87;;;21.50;43.10;;;;;;5041715;28;20898;-41
2023/08/01 10:31:24;;;;;;;10.63;10.13;;;21.50;57.30;;;;;;5024076;28;20196;-40
2023/08/01 10:33:50;;;;;;;9.20;8.80;;;21.50;22.10;;;;;;5040602;28;20884;-39
2023/08/01 10:36:17;;;;;;;10.67;10.27;;;21.60;1.00;;;;;;5039258;28;20509;-42
2023/08/01 10:38:46;;;;;;;10.10;9.70;;;21.90;1.00;;;;;;5041324;28;20793;-40
2023/08/01 10:41:24;;;;;;;10.13;9.73;;;22.00;1.00;;;;;;5042209;28;20689;-42
2023/08/01 10:43:50;;;;;;;10.17;9.67;;;22.00;1.00;;;;;;5041196;28;20498;-41
2023/08/01 10:46:16;;;;;;;10.37;9.97;;;22.00;1.00;;;;;;5040633;28;20551;-43
2023/08/01 10:48:51;;;;;;;10.63;10.13;;;22.10;1.00;;;;;;5040517;28;20190;-39
2023/08/01 10:51:17;;;;;;;10.60;10.20;;;22.60;1.00;;;;;;5040758;28;20182;-40
2023/08/01 10:53:43;;;;;;;11.17;10.67;;;22.80;1.00;;;;;;5040363;28;21001;-41
2023/08/01 10:56:16;;;;;;;11.17;10.73;;;23.30;1.00;;;;;;5041925;28;20416;-41
2023/08/01 10:58:42;;;;;;;10.70;10.30;;;23.80;1.00;;;;;;5040655;28;20312;-52
2023/08/01 11:01:07;;;;;;;10.60;10.10;;;23.90;1.00;;;;;;5039927;28;20467;-51
2023/08/01 11:03:37;;;;;;;10.47;10.07;;;24.20;1.00;;;;;;5040226;28;20710;-48
2023/08/01 11:06:03;;;;;;;10.50;10.10;;;24.50;1.00;;;;;;5041397;28;20673;-51
2023/08/01 11:08:39;;;;;;;10.63;10.23;;;24.70;1.00;;;;;;5040986;28;20436;-49
2023/08/01 11:11:10;;;;;;;10.43;10.03;;;24.50;1.00;;;;;;5040502;28;21017;-53
2023/08/01 11:13:36;;;;;;;9.47;9.07;;;24.10;99.90;;;;;;5040481;28;21070;-48
2023/08/01 11:16:06;;;;;;;10.00;9.60;;;23.80;99.90;;;;;;5040617;28;20530;-50
2023/08/01 11:18:44;;;;;;;10.20;9.80;;;23.30;99.90;;;;;;5040973;28;20622;-49
2023/08/01 11:21:10;;;;;;;10.30;9.90;;;23.10;1.00;;;;;;5040564;28;20416;-48
2023/08/01 11:23:36;;;;;;;10.10;9.70;;;22.90;1.00;;;;;;5040107;28;20479;-51
2023/08/01 11:26:08;;;;;;;10.50;10.10;;;23.10;1.00;;;;;;5039916;28;20693;-54
2023/08/01 11:28:34;;;;;;;9.83;9.43;;;23.20;1.00;;;;;;5022716;28;21023;-52
2023/08/01 11:30:59;;;;;;;10.70;10.30;;;23.20;1.00;;;;;;5041038;28;20416;-47
2023/08/01 11:33:25;;;;;;;10.63;10.23;;;23.30;99.90;;;;;;5039633;28;20225;-54
2023/08/01 11:35:53;;;;;;;9.57;9.17;;;23.50;99.90;;;;;;5039970;28;20670;-50
2023/08/01 11:38:21;;;;;;;10.50;10.10;;;23.50;99.90;;;;;;5039711;28;20461;-48
2023/08/01 11:40:49;;;;;;;10.00;9.60;;;23.60;99.90;;;;;;5040932;28;20531;-55
2023/08/01 11:43:15;;;;;;;8.70;8.40;;;23.90;99.90;;;;;;5039430;28;20933;-53
2023/08/01 11:45:49;;;;;;;9.97;9.57;;;24.00;99.90;;;;;;5038624;28;20470;-53
2023/08/01 11:48:14;;;;;;;9.70;9.20;;;24.20;99.90;;;;;;5040341;28;20442;-50
2023/08/01 11:50:40;;;;;;;10.00;9.60;;;24.20;99.90;;;;;;5040359;28;20455;-49
2023/08/01 11:53:05;;;;;;;9.23;8.93;;;24.30;99.90;;;;;;5040258;28;20190;-50
2023/08/01 11:55:36;;;;;;;10.20;9.80;;;24.30;99.90;;;;;;5039096;28;20664;-55
2023/08/01 11:58:04;;;;;;;10.30;9.90;;;24.00;99.90;;;;;;5039909;28;20847;-49
2023/08/01 12:00:30;;;;;;;9.10;8.70;;;24.10;99.90;;;;;;5039610;28;20535;-49
2023/08/01 12:03:07;;;;;;;9.33;9.00;;;24.20;99.90;;;;;;5040713;28;21053;-51
2023/08/01 12:05:33;;;;;;;9.57;9.17;;;24.10;99.90;;;;;;5039862;28;20805;-54
2023/08/01 12:08:09;;;;;;;10.40;9.90;;;24.10;99.90;;;;;;5038781;28;20436;-47
2023/08/01 12:10:45;;;;;;;9.97;9.57;;;24.10;99.90;;;;;;5039741;28;20917;-49
2023/08/01 12:13:21;;;;;;;9.63;9.23;;;24.20;99.90;;;;;;5039085;28;20440;-52
2023/08/01 12:15:52;;;;;;;10.27;9.60;;;23.70;99.90;;;;;;5039227;28;20439;-49
2023/08/01 12:18:25;;;;;;;9.80;9.40;;;23.50;99.90;;;;;;5038962;28;20497;-53
2023/08/01 12:20:51;;;;;;;10.00;9.60;;;23.30;99.90;;;;;;5040391;28;20559;-50
2023/08/01 12:23:17;;;;;;;10.53;10.13;;;23.20;1.00;;;;;;5053294;28;20911;-52
2023/08/01 12:25:43;;;;;;;14.20;13.30;;;23.00;1.00;;;;;;5037339;28;20531;-49
2023/08/01 12:28:09;;;;;;;15.40;14.70;;;22.20;1.00;;;;;;5039403;28;20432;-49
2023/08/01 12:30:35;;;;;;;14.90;14.30;;;21.30;99.90;;;;;;5039853;28;21199;-46